sensor_id;sensor_type;location;lat;lon;timestamp;temperature;humidity
15535;DHT22;7869;49.264;8.596;2022-11-28T00:02:08;5.30;99.90
15535;DHT22;7869;49.264;8.596;2022-11-28T00:04:34;5.30;99.90
15535;DHT22;7869;49.264;8.596;2022-11-28T00:06:59;5.30;99.90
15535;DHT22;7869;49.264;8.596;2022-11-28T00:09:25;5.30;99.90
15535;DHT22;7869;49.264;8.596;2022-11-28T00:11:50;5.20;99.90
15535;DHT22;7869;49.264;8.596;2022-11-28T00:14:17;5.30;99.90
15535;DHT22;7869;49.264;8.596;2022-11-28T00:16:43;5.20;99.90
15535;DHT22;7869;49.264;8.596;2022-11-28T00:19:10;5.20;99.90
15535;DHT22;7869;49.264;8.596;2022-11-28T00:21:36;5.20;99.90
15535;DHT22;7869;49.264;8.596;2022-11-28T00:24:02;5.10;99.90
15535;DHT22;7869;49.264;8.596;2022-11-28T00:26:37;5.10;99.90
15535;DHT22;7869;49.264;8.596;2022-11-28T00:29:04;5.20;99.90
15535;DHT22;7869;49.264;8.596;2022-11-28T00:31:33;5.10;99.90
15535;DHT22;7869;49.264;8.596;2022-11-28T00:34:00;5.10;99.90
15535;DHT22;7869;49.264;8.596;2022-11-28T00:36:28;5.00;99.90
15535;DHT22;7869;49.264;8.596;2022-11-28T00:38:54;5.00;99.90
15535;DHT22;7869;49.264;8.596;2022-11-28T00:41:26;5.00;99.90
15535;DHT22;7869;49.264;8.596;2022-11-28T00:43:53;5.00;99.90
15535;DHT22;7869;49.264;8.596;2022-11-28T00:46:20;5.00;99.90
15535;DHT22;7869;49.264;8.596;2022-11-28T00:48:46;5.00;99.90
15535;DHT22;7869;49.264;8.596;2022-11-28T00:51:17;4.90;99.90
15535;DHT22;7869;49.264;8.596;2022-11-28T00:53:44;4.90;99.90
15535;DHT22;7869;49.264;8.596;2022-11-28T00:56:13;4.80;99.90
15535;DHT22;7869;49.264;8.596;2022-11-28T00:58:40;4.80;99.90
15535;DHT22;7869;49.264;8.596;2022-11-28T01:01:07;4.80;99.90
15535;DHT22;7869;49.264;8.596;2022-11-28T01:03:33;4.70;99.90
15535;DHT22;7869;49.264;8.596;2022-11-28T01:05:59;4.70;99.90
15535;DHT22;7869;49.264;8.596;2022-11-28T01:08:24;4.70;99.90
15535;DHT22;7869;49.264;8.596;2022-11-28T01:10:50;4.70;99.90
15535;DHT22;7869;49.264;8.596;2022-11-28T01:13:15;4.70;99.90
15535;DHT22;7869;49.264;8.596;2022-11-28T01:15:41;4.80;99.90
15535;DHT22;7869;49.264;8.596;2022-11-28T01:18:07;4.80;99.90
15535;DHT22;7869;49.264;8.596;2022-11-28T01:20:34;4.80;99.90
15535;DHT22;7869;49.264;8.596;2022-11-28T01:22:59;4.80;99.90
15535;DHT22;7869;49.264;8.596;2022-11-28T01:25:25;4.70;99.90
15535;DHT22;7869;49.264;8.596;2022-11-28T01:27:50;4.70;99.90
15535;DHT22;7869;49.264;8.596;2022-11-28T01:30:16;4.80;99.90
15535;DHT22;7869;49.264;8.596;2022-11-28T01:32:42;4.80;99.90
15535;DHT22;7869;49.264;8.596;2022-11-28T01:35:08;4.80;99.90
15535;DHT22;7869;49.264;8.596;2022-11-28T01:37:33;4.80;99.90
15535;DHT22;7869;49.264;8.596;2022-11-28T01:39:59;4.80;99.90
15535;DHT22;7869;49.264;8.596;2022-11-28T01:42:24;4.80;99.90
15535;DHT22;7869;49.264;8.596;2022-11-28T01:47:24;4.70;99.90
15535;DHT22;7869;49.264;8.596;2022-11-28T01:49:53;4.80;99.90
15535;DHT22;7869;49.264;8.596;2022-11-28T01:52:20;4.80;99.90
15535;DHT22;7869;49.264;8.596;2022-11-28T01:54:50;4.80;99.90
15535;DHT22;7869;49.264;8.596;2022-11-28T01:57:20;4.80;99.90
15535;DHT22;7869;49.264;8.596;2022-11-28T01:59:53;4.80;99.90
15535;DHT22;7869;49.264;8.596;2022-11-28T02:02:27;4.80;99.90
15535;DHT22;7869;49.264;8.596;2022-11-28T02:04:54;4.80;99.90
15535;DHT22;7869;49.264;8.596;2022-11-28T02:07:20;4.80;99.90
15535;DHT22;7869;49.264;8.596;2022-11-28T02:09:46;4.80;99.90
15535;DHT22;7869;49.264;8.596;2022-11-28T02:17:55;4.80;99.90
15535;DHT22;7869;49.264;8.596;2022-11-28T02:20:39;4.80;99.90
15535;DHT22;7869;49.264;8.596;2022-11-28T02:23:14;4.80;99.90
15535;DHT22;7869;49.264;8.596;2022-11-28T02:37:35;4.70;99.90
15535;DHT22;7869;49.264;8.596;2022-11-28T02:45:10;4.70;99.90
15535;DHT22;7869;49.264;8.596;2022-11-28T02:47:47;4.70;99.90
15535;DHT22;7869;49.264;8.596;2022-11-28T02:50:27;4.70;99.90
15535;DHT22;7869;49.264;8.596;2022-11-28T02:53:07;4.70;99.90
15535;DHT22;7869;49.264;8.596;2022-11-28T02:55:38;4.70;99.90
15535;DHT22;7869;49.264;8.596;2022-11-28T02:58:04;4.70;99.90
15535;DHT22;7869;49.264;8.596;2022-11-28T03:00:36;4.50;99.90
15535;DHT22;7869;49.264;8.596;2022-11-28T03:03:31;4.60;99.90
15535;DHT22;7869;49.264;8.596;2022-11-28T03:06:13;4.60;99.90
15535;DHT22;7869;49.264;8.596;2022-11-28T03:15:08;4.60;99.90
15535;DHT22;7869;49.264;8.596;2022-11-28T03:18:10;4.50;99.90
15535;DHT22;7869;49.264;8.596;2022-11-28T03:20:52;4.50;99.90
15535;DHT22;7869;49.264;8.596;2022-11-28T03:31:43;4.50;99.90
15535;DHT22;7869;49.264;8.596;2022-11-28T03:34:12;4.50;99.90
15535;DHT22;7869;49.264;8.596;2022-11-28T03:36:44;4.50;99.90
15535;DHT22;7869;49.264;8.596;2022-11-28T03:39:13;4.50;99.90
15535;DHT22;7869;49.264;8.596;2022-11-28T03:44:25;4.50;99.90
15535;DHT22;7869;49.264;8.596;2022-11-28T03:46:54;4.50;99.90
15535;DHT22;7869;49.264;8.596;2022-11-28T03:49:25;4.50;99.90
15535;DHT22;7869;49.264;8.596;2022-11-28T03:51:56;4.40;99.90
15535;DHT22;7869;49.264;8.596;2022-11-28T03:54:46;4.40;99.90
15535;DHT22;7869;49.264;8.596;2022-11-28T03:57:50;4.40;99.90
15535;DHT22;7869;49.264;8.596;2022-11-28T04:00:17;4.50;99.90
15535;DHT22;7869;49.264;8.596;2022-11-28T04:03:07;4.50;99.90
15535;DHT22;7869;49.264;8.596;2022-11-28T04:05:50;4.40;99.90
15535;DHT22;7869;49.264;8.596;2022-11-28T04:08:30;4.30;99.90
15535;DHT22;7869;49.264;8.596;2022-11-28T04:11:07;4.30;99.90
15535;DHT22;7869;49.264;8.596;2022-11-28T04:16:33;4.30;99.90
15535;DHT22;7869;49.264;8.596;2022-11-28T04:19:16;4.30;99.90
15535;DHT22;7869;49.264;8.596;2022-11-28T04:21:49;4.30;99.90
15535;DHT22;7869;49.264;8.596;2022-11-28T04:24:22;4.30;99.90
15535;DHT22;7869;49.264;8.596;2022-11-28T04:26:57;4.30;99.90
15535;DHT22;7869;49.264;8.596;2022-11-28T04:29:25;4.20;99.90
15535;DHT22;7869;49.264;8.596;2022-11-28T04:31:55;4.20;99.90
15535;DHT22;7869;49.264;8.596;2022-11-28T04:34:23;4.20;99.90
15535;DHT22;7869;49.264;8.596;2022-11-28T04:36:51;4.20;99.90
15535;DHT22;7869;49.264;8.596;2022-11-28T04:39:20;4.20;99.90
15535;DHT22;7869;49.264;8.596;2022-11-28T04:41:54;4.20;99.90
15535;DHT22;7869;49.264;8.596;2022-11-28T04:44:35;4.20;99.90
15535;DHT22;7869;49.264;8.596;2022-11-28T04:47:02;4.20;99.90
15535;DHT22;7869;49.264;8.596;2022-11-28T04:49:29;4.20;99.90
15535;DHT22;7869;49.264;8.596;2022-11-28T04:52:19;4.20;99.90
15535;DHT22;7869;49.264;8.596;2022-11-28T05:00:05;4.20;99.90
15535;DHT22;7869;49.264;8.596;2022-11-28T05:02:32;4.20;99.90
15535;DHT22;7869;49.264;8.596;2022-11-28T05:04:58;4.20;99.90
15535;DHT22;7869;49.264;8.596;2022-11-28T05:07:24;4.20;99.90
15535;DHT22;7869;49.264;8.596;2022-11-28T05:09:50;4.10;99.90
15535;DHT22;7869;49.264;8.596;2022-11-28T05:12:15;4.10;99.90
15535;DHT22;7869;49.264;8.596;2022-11-28T05:14:41;4.20;99.90
15535;DHT22;7869;49.264;8.596;2022-11-28T05:17:07;4.20;99.90
15535;DHT22;7869;49.264;8.596;2022-11-28T05:19:32;4.20;99.90
15535;DHT22;7869;49.264;8.596;2022-11-28T05:21:58;4.10;99.90
15535;DHT22;7869;49.264;8.596;2022-11-28T05:24:24;4.10;99.90
15535;DHT22;7869;49.264;8.596;2022-11-28T05:26:49;4.10;99.90
15535;DHT22;7869;49.264;8.596;2022-11-28T05:29:15;4.10;99.90
15535;DHT22;7869;49.264;8.596;2022-11-28T05:31:41;4.20;99.90
15535;DHT22;7869;49.264;8.596;2022-11-28T05:34:07;4.20;99.90
15535;DHT22;7869;49.264;8.596;2022-11-28T05:36:32;4.20;99.90
15535;DHT22;7869;49.264;8.596;2022-11-28T05:38:58;4.20;99.90
15535;DHT22;7869;49.264;8.596;2022-11-28T05:41:28;4.20;99.90
15535;DHT22;7869;49.264;8.596;2022-11-28T05:43:55;4.10;99.90
15535;DHT22;7869;49.264;8.596;2022-11-28T05:46:21;4.20;99.90
15535;DHT22;7869;49.264;8.596;2022-11-28T05:48:47;4.20;99.90
15535;DHT22;7869;49.264;8.596;2022-11-28T05:51:12;4.20;99.90
15535;DHT22;7869;49.264;8.596;2022-11-28T05:53:38;4.20;99.90
15535;DHT22;7869;49.264;8.596;2022-11-28T05:56:30;4.10;99.90
15535;DHT22;7869;49.264;8.596;2022-11-28T05:58:56;4.10;99.90
15535;DHT22;7869;49.264;8.596;2022-11-28T06:01:26;4.10;99.90
15535;DHT22;7869;49.264;8.596;2022-11-28T06:03:52;4.10;99.90
15535;DHT22;7869;49.264;8.596;2022-11-28T06:06:23;4.20;99.90
15535;DHT22;7869;49.264;8.596;2022-11-28T06:08:49;4.20;99.90
15535;DHT22;7869;49.264;8.596;2022-11-28T06:11:19;4.20;99.90
15535;DHT22;7869;49.264;8.596;2022-11-28T06:13:46;4.20;99.90
15535;DHT22;7869;49.264;8.596;2022-11-28T06:16:24;4.30;99.90
15535;DHT22;7869;49.264;8.596;2022-11-28T06:18:58;4.30;99.90
15535;DHT22;7869;49.264;8.596;2022-11-28T06:21:24;4.20;99.90
15535;DHT22;7869;49.264;8.596;2022-11-28T06:23:50;4.20;99.90
15535;DHT22;7869;49.264;8.596;2022-11-28T06:26:18;4.20;99.90
15535;DHT22;7869;49.264;8.596;2022-11-28T06:28:44;4.20;99.90
15535;DHT22;7869;49.264;8.596;2022-11-28T06:31:15;4.30;99.90
15535;DHT22;7869;49.264;8.596;2022-11-28T06:33:41;4.30;99.90
15535;DHT22;7869;49.264;8.596;2022-11-28T06:36:07;4.30;99.90
15535;DHT22;7869;49.264;8.596;2022-11-28T06:38:34;4.20;99.90
15535;DHT22;7869;49.264;8.596;2022-11-28T06:41:02;4.20;99.90
15535;DHT22;7869;49.264;8.596;2022-11-28T06:43:28;4.20;99.90
15535;DHT22;7869;49.264;8.596;2022-11-28T06:45:54;4.20;99.90
15535;DHT22;7869;49.264;8.596;2022-11-28T06:48:20;4.30;99.90
15535;DHT22;7869;49.264;8.596;2022-11-28T06:50:46;4.20;99.90
15535;DHT22;7869;49.264;8.596;2022-11-28T06:53:12;4.20;99.90
15535;DHT22;7869;49.264;8.596;2022-11-28T06:55:38;4.20;99.90
15535;DHT22;7869;49.264;8.596;2022-11-28T06:58:03;4.20;99.90
15535;DHT22;7869;49.264;8.596;2022-11-28T07:00:29;4.20;99.90
15535;DHT22;7869;49.264;8.596;2022-11-28T07:02:55;4.30;99.90
15535;DHT22;7869;49.264;8.596;2022-11-28T07:05:21;4.20;99.90
15535;DHT22;7869;49.264;8.596;2022-11-28T07:07:50;4.20;99.90
15535;DHT22;7869;49.264;8.596;2022-11-28T07:10:15;4.20;99.90
15535;DHT22;7869;49.264;8.596;2022-11-28T07:12:41;4.20;99.90
15535;DHT22;7869;49.264;8.596;2022-11-28T07:15:07;4.20;99.90
15535;DHT22;7869;49.264;8.596;2022-11-28T07:17:33;4.20;99.90
15535;DHT22;7869;49.264;8.596;2022-11-28T07:19:59;4.30;99.90
15535;DHT22;7869;49.264;8.596;2022-11-28T07:22:24;4.30;99.90
15535;DHT22;7869;49.264;8.596;2022-11-28T07:24:50;4.30;99.90
15535;DHT22;7869;49.264;8.596;2022-11-28T07:27:16;4.30;99.90
15535;DHT22;7869;49.264;8.596;2022-11-28T07:29:42;4.30;99.90
15535;DHT22;7869;49.264;8.596;2022-11-28T07:32:07;4.30;99.90
15535;DHT22;7869;49.264;8.596;2022-11-28T07:34:33;4.30;99.90
15535;DHT22;7869;49.264;8.596;2022-11-28T07:36:59;4.30;99.90
15535;DHT22;7869;49.264;8.596;2022-11-28T07:39:24;4.30;99.90
15535;DHT22;7869;49.264;8.596;2022-11-28T07:41:50;4.40;99.90
15535;DHT22;7869;49.264;8.596;2022-11-28T07:44:16;4.40;99.90
15535;DHT22;7869;49.264;8.596;2022-11-28T07:46:43;4.40;99.90
15535;DHT22;7869;49.264;8.596;2022-11-28T07:49:09;4.40;99.90
15535;DHT22;7869;49.264;8.596;2022-11-28T07:51:34;4.50;99.90
15535;DHT22;7869;49.264;8.596;2022-11-28T07:54:01;4.50;99.90
15535;DHT22;7869;49.264;8.596;2022-11-28T07:56:31;4.50;99.90
15535;DHT22;7869;49.264;8.596;2022-11-28T07:58:58;4.50;99.90
15535;DHT22;7869;49.264;8.596;2022-11-28T08:01:25;4.50;99.90
15535;DHT22;7869;49.264;8.596;2022-11-28T08:03:52;4.50;99.90
15535;DHT22;7869;49.264;8.596;2022-11-28T08:06:21;4.50;99.90
15535;DHT22;7869;49.264;8.596;2022-11-28T08:08:46;4.60;99.90
15535;DHT22;7869;49.264;8.596;2022-11-28T08:11:14;4.60;99.90
15535;DHT22;7869;49.264;8.596;2022-11-28T08:13:40;4.70;99.90
15535;DHT22;7869;49.264;8.596;2022-11-28T08:16:09;4.70;99.90
15535;DHT22;7869;49.264;8.596;2022-11-28T08:18:36;4.80;99.90
15535;DHT22;7869;49.264;8.596;2022-11-28T08:21:07;4.90;99.90
15535;DHT22;7869;49.264;8.596;2022-11-28T08:23:34;4.90;99.90
15535;DHT22;7869;49.264;8.596;2022-11-28T08:26:01;5.00;99.90
15535;DHT22;7869;49.264;8.596;2022-11-28T08:28:27;5.00;99.90
15535;DHT22;7869;49.264;8.596;2022-11-28T08:30:53;5.00;99.90
15535;DHT22;7869;49.264;8.596;2022-11-28T08:33:18;5.00;99.90
15535;DHT22;7869;49.264;8.596;2022-11-28T08:35:44;5.00;99.90
15535;DHT22;7869;49.264;8.596;2022-11-28T08:38:10;5.10;99.90
15535;DHT22;7869;49.264;8.596;2022-11-28T08:40:35;5.10;99.90
15535;DHT22;7869;49.264;8.596;2022-11-28T08:43:01;5.10;99.90
15535;DHT22;7869;49.264;8.596;2022-11-28T08:45:26;5.10;99.90
15535;DHT22;7869;49.264;8.596;2022-11-28T08:47:52;5.10;99.90
15535;DHT22;7869;49.264;8.596;2022-11-28T08:50:17;5.20;99.90
15535;DHT22;7869;49.264;8.596;2022-11-28T08:52:43;5.20;99.90
15535;DHT22;7869;49.264;8.596;2022-11-28T08:55:09;5.20;99.90
15535;DHT22;7869;49.264;8.596;2022-11-28T08:57:34;5.20;99.90
15535;DHT22;7869;49.264;8.596;2022-11-28T09:00:00;5.30;99.90
15535;DHT22;7869;49.264;8.596;2022-11-28T09:02:25;5.30;99.90
15535;DHT22;7869;49.264;8.596;2022-11-28T09:04:51;5.40;99.90
15535;DHT22;7869;49.264;8.596;2022-11-28T09:07:16;5.40;99.90
15535;DHT22;7869;49.264;8.596;2022-11-28T09:09:42;5.40;99.90
15535;DHT22;7869;49.264;8.596;2022-11-28T09:12:08;5.50;99.90
15535;DHT22;7869;49.264;8.596;2022-11-28T09:14:33;5.50;99.90
15535;DHT22;7869;49.264;8.596;2022-11-28T09:16:59;5.50;99.90
15535;DHT22;7869;49.264;8.596;2022-11-28T09:19:24;5.60;99.90
15535;DHT22;7869;49.264;8.596;2022-11-28T09:21:50;5.60;99.90
15535;DHT22;7869;49.264;8.596;2022-11-28T09:24:15;5.70;99.90
15535;DHT22;7869;49.264;8.596;2022-11-28T09:26:41;5.80;99.90
15535;DHT22;7869;49.264;8.596;2022-11-28T09:29:07;5.80;99.90
15535;DHT22;7869;49.264;8.596;2022-11-28T09:31:32;5.90;99.90
15535;DHT22;7869;49.264;8.596;2022-11-28T09:33:58;6.00;99.90
15535;DHT22;7869;49.264;8.596;2022-11-28T09:36:24;6.10;99.90
15535;DHT22;7869;49.264;8.596;2022-11-28T09:38:50;6.10;99.90
15535;DHT22;7869;49.264;8.596;2022-11-28T09:41:31;6.10;99.90
15535;DHT22;7869;49.264;8.596;2022-11-28T09:44:07;6.20;99.90
15535;DHT22;7869;49.264;8.596;2022-11-28T09:46:35;6.20;99.90
15535;DHT22;7869;49.264;8.596;2022-11-28T09:52:03;6.30;99.90
15535;DHT22;7869;49.264;8.596;2022-11-28T09:54:55;6.30;99.90
15535;DHT22;7869;49.264;8.596;2022-11-28T09:57:47;6.40;99.90
15535;DHT22;7869;49.264;8.596;2022-11-28T10:00:21;6.40;99.90
15535;DHT22;7869;49.264;8.596;2022-11-28T10:05:59;6.40;99.90
15535;DHT22;7869;49.264;8.596;2022-11-28T10:08:50;6.50;99.90
15535;DHT22;7869;49.264;8.596;2022-11-28T10:11:26;6.50;99.90
15535;DHT22;7869;49.264;8.596;2022-11-28T10:19:50;6.60;99.90
15535;DHT22;7869;49.264;8.596;2022-11-28T10:22:21;6.60;99.90
15535;DHT22;7869;49.264;8.596;2022-11-28T10:24:54;6.60;99.90
15535;DHT22;7869;49.264;8.596;2022-11-28T10:27:24;6.70;99.90
15535;DHT22;7869;49.264;8.596;2022-11-28T10:30:22;6.70;99.90
15535;DHT22;7869;49.264;8.596;2022-11-28T10:38:01;6.80;99.90
15535;DHT22;7869;49.264;8.596;2022-11-28T10:40:48;6.80;99.90
15535;DHT22;7869;49.264;8.596;2022-11-28T10:46:09;7.00;99.90
15535;DHT22;7869;49.264;8.596;2022-11-28T10:49:06;7.00;99.90
15535;DHT22;7869;49.264;8.596;2022-11-28T10:51:44;7.00;99.90
15535;DHT22;7869;49.264;8.596;2022-11-28T10:57:08;7.00;99.90
15535;DHT22;7869;49.264;8.596;2022-11-28T10:59:42;7.00;99.90
15535;DHT22;7869;49.264;8.596;2022-11-28T11:02:35;7.00;99.90
15535;DHT22;7869;49.264;8.596;2022-11-28T11:05:03;7.10;99.90
15535;DHT22;7869;49.264;8.596;2022-11-28T11:07:31;7.10;99.90
15535;DHT22;7869;49.264;8.596;2022-11-28T11:12:33;7.20;99.90
15535;DHT22;7869;49.264;8.596;2022-11-28T11:15:14;7.30;99.90
15535;DHT22;7869;49.264;8.596;2022-11-28T11:17:40;7.40;99.90
15535;DHT22;7869;49.264;8.596;2022-11-28T11:22:59;7.50;99.90
15535;DHT22;7869;49.264;8.596;2022-11-28T11:25:27;7.50;99.90
15535;DHT22;7869;49.264;8.596;2022-11-28T11:27:58;7.50;99.90
15535;DHT22;7869;49.264;8.596;2022-11-28T11:30:37;7.50;99.90
15535;DHT22;7869;49.264;8.596;2022-11-28T11:33:04;7.50;99.90
15535;DHT22;7869;49.264;8.596;2022-11-28T11:35:35;7.50;99.90
15535;DHT22;7869;49.264;8.596;2022-11-28T11:40:45;7.60;99.90
15535;DHT22;7869;49.264;8.596;2022-11-28T11:43:26;7.60;99.90
15535;DHT22;7869;49.264;8.596;2022-11-28T11:46:06;7.70;99.90
15535;DHT22;7869;49.264;8.596;2022-11-28T11:48:36;7.70;99.90
15535;DHT22;7869;49.264;8.596;2022-11-28T11:51:02;7.70;99.90
15535;DHT22;7869;49.264;8.596;2022-11-28T11:53:28;7.80;99.90
15535;DHT22;7869;49.264;8.596;2022-11-28T11:55:55;7.70;99.90
15535;DHT22;7869;49.264;8.596;2022-11-28T11:58:27;7.80;99.90
15535;DHT22;7869;49.264;8.596;2022-11-28T12:00:58;7.90;99.90
15535;DHT22;7869;49.264;8.596;2022-11-28T12:06:41;7.90;99.90
15535;DHT22;7869;49.264;8.596;2022-11-28T12:09:33;8.10;99.90
15535;DHT22;7869;49.264;8.596;2022-11-28T12:12:28;8.20;99.90
15535;DHT22;7869;49.264;8.596;2022-11-28T12:14:55;8.20;99.90
15535;DHT22;7869;49.264;8.596;2022-11-28T12:17:54;8.30;99.90
15535;DHT22;7869;49.264;8.596;2022-11-28T12:23:18;8.60;99.90
15535;DHT22;7869;49.264;8.596;2022-11-28T12:25:58;8.70;99.90
15535;DHT22;7869;49.264;8.596;2022-11-28T12:36:41;9.00;99.90
15535;DHT22;7869;49.264;8.596;2022-11-28T12:39:17;9.00;99.90
15535;DHT22;7869;49.264;8.596;2022-11-28T12:42:17;8.90;99.90
15535;DHT22;7869;49.264;8.596;2022-11-28T12:45:25;8.90;99.90
15535;DHT22;7869;49.264;8.596;2022-11-28T12:49:09;8.80;99.90
15535;DHT22;7869;49.264;8.596;2022-11-28T12:54:00;8.70;99.90
15535;DHT22;7869;49.264;8.596;2022-11-28T12:56:57;8.60;99.90
15535;DHT22;7869;49.264;8.596;2022-11-28T13:02:43;8.60;99.90
15535;DHT22;7869;49.264;8.596;2022-11-28T13:05:20;8.60;99.90
15535;DHT22;7869;49.264;8.596;2022-11-28T13:08:05;8.60;99.90
15535;DHT22;7869;49.264;8.596;2022-11-28T13:16:33;8.70;99.90
15535;DHT22;7869;49.264;8.596;2022-11-28T13:19:17;8.60;99.90
15535;DHT22;7869;49.264;8.596;2022-11-28T13:22:00;8.60;99.90
15535;DHT22;7869;49.264;8.596;2022-11-28T13:30:27;8.60;99.90
15535;DHT22;7869;49.264;8.596;2022-11-28T13:35:53;8.60;99.90
15535;DHT22;7869;49.264;8.596;2022-11-28T13:38:29;8.60;99.90
15535;DHT22;7869;49.264;8.596;2022-11-28T13:42:03;8.60;99.90
15535;DHT22;7869;49.264;8.596;2022-11-28T13:46:42;8.60;99.90
15535;DHT22;7869;49.264;8.596;2022-11-28T13:49:24;8.60;99.90
15535;DHT22;7869;49.264;8.596;2022-11-28T13:54:53;8.50;99.90
15535;DHT22;7869;49.264;8.596;2022-11-28T13:57:36;8.50;99.90
15535;DHT22;7869;49.264;8.596;2022-11-28T14:00:22;8.50;99.90
15535;DHT22;7869;49.264;8.596;2022-11-28T14:02:53;8.40;99.90
15535;DHT22;7869;49.264;8.596;2022-11-28T14:05:29;8.40;99.90
15535;DHT22;7869;49.264;8.596;2022-11-28T14:07:56;8.40;99.90
15535;DHT22;7869;49.264;8.596;2022-11-28T14:13:28;8.40;99.90
15535;DHT22;7869;49.264;8.596;2022-11-28T14:19:30;8.30;99.90
15535;DHT22;7869;49.264;8.596;2022-11-28T14:22:28;8.20;99.90
15535;DHT22;7869;49.264;8.596;2022-11-28T14:25:31;8.20;99.90
15535;DHT22;7869;49.264;8.596;2022-11-28T14:28:02;8.20;99.90
15535;DHT22;7869;49.264;8.596;2022-11-28T14:30:38;8.20;99.90
15535;DHT22;7869;49.264;8.596;2022-11-28T14:33:23;8.20;99.90
15535;DHT22;7869;49.264;8.596;2022-11-28T14:38:58;8.10;99.90
15535;DHT22;7869;49.264;8.596;2022-11-28T14:41:24;8.00;99.90
15535;DHT22;7869;49.264;8.596;2022-11-28T14:43:49;8.00;99.90
15535;DHT22;7869;49.264;8.596;2022-11-28T14:49:26;8.00;99.90
15535;DHT22;7869;49.264;8.596;2022-11-28T14:54:24;7.90;99.90
15535;DHT22;7869;49.264;8.596;2022-11-28T14:56:51;7.90;99.90
15535;DHT22;7869;49.264;8.596;2022-11-28T14:59:17;7.90;99.90
15535;DHT22;7869;49.264;8.596;2022-11-28T15:04:57;7.80;99.90
15535;DHT22;7869;49.264;8.596;2022-11-28T15:13:57;7.70;99.90
15535;DHT22;7869;49.264;8.596;2022-11-28T15:16:04;7.70;99.90
15535;DHT22;7869;49.264;8.596;2022-11-28T15:18:31;7.60;99.90
15535;DHT22;7869;49.264;8.596;2022-11-28T15:21:00;7.60;99.90
15535;DHT22;7869;49.264;8.596;2022-11-28T15:23:32;7.60;99.90
15535;DHT22;7869;49.264;8.596;2022-11-28T15:25:59;7.50;99.90
15535;DHT22;7869;49.264;8.596;2022-11-28T15:28:26;7.50;99.90
15535;DHT22;7869;49.264;8.596;2022-11-28T15:30:54;7.50;99.90
15535;DHT22;7869;49.264;8.596;2022-11-28T15:33:21;7.50;99.90
15535;DHT22;7869;49.264;8.596;2022-11-28T15:36:07;7.50;99.90
15535;DHT22;7869;49.264;8.596;2022-11-28T15:38:41;7.50;99.90
15535;DHT22;7869;49.264;8.596;2022-11-28T15:41:07;7.40;99.90
15535;DHT22;7869;49.264;8.596;2022-11-28T15:43:35;7.40;99.90
15535;DHT22;7869;49.264;8.596;2022-11-28T15:46:02;7.40;99.90
15535;DHT22;7869;49.264;8.596;2022-11-28T15:48:36;7.40;99.90
15535;DHT22;7869;49.264;8.596;2022-11-28T15:51:04;7.40;99.90
15535;DHT22;7869;49.264;8.596;2022-11-28T15:53:30;7.40;99.90
15535;DHT22;7869;49.264;8.596;2022-11-28T15:56:14;7.40;99.90
15535;DHT22;7869;49.264;8.596;2022-11-28T15:58:41;7.40;99.90
15535;DHT22;7869;49.264;8.596;2022-11-28T16:01:21;7.40;99.90
15535;DHT22;7869;49.264;8.596;2022-11-28T16:04:04;7.40;99.90
15535;DHT22;7869;49.264;8.596;2022-11-28T16:06:34;7.40;99.90
15535;DHT22;7869;49.264;8.596;2022-11-28T16:09:06;7.40;99.90
15535;DHT22;7869;49.264;8.596;2022-11-28T16:11:37;7.40;99.90
15535;DHT22;7869;49.264;8.596;2022-11-28T16:14:08;7.30;99.90
15535;DHT22;7869;49.264;8.596;2022-11-28T16:16:36;7.30;99.90
15535;DHT22;7869;49.264;8.596;2022-11-28T16:19:07;7.40;99.90
15535;DHT22;7869;49.264;8.596;2022-11-28T16:21:50;7.30;99.90
15535;DHT22;7869;49.264;8.596;2022-11-28T16:24:32;7.40;99.90
15535;DHT22;7869;49.264;8.596;2022-11-28T16:27:03;7.30;99.90
15535;DHT22;7869;49.264;8.596;2022-11-28T16:29:31;7.30;99.90
15535;DHT22;7869;49.264;8.596;2022-11-28T16:34:50;7.30;99.90
15535;DHT22;7869;49.264;8.596;2022-11-28T16:37:24;7.20;99.90
15535;DHT22;7869;49.264;8.596;2022-11-28T16:40:15;7.30;99.90
15535;DHT22;7869;49.264;8.596;2022-11-28T16:42:51;7.20;99.90
15535;DHT22;7869;49.264;8.596;2022-11-28T16:45:26;7.20;99.90
15535;DHT22;7869;49.264;8.596;2022-11-28T16:48:12;7.20;99.90
15535;DHT22;7869;49.264;8.596;2022-11-28T16:51:24;7.20;99.90
15535;DHT22;7869;49.264;8.596;2022-11-28T16:53:46;7.20;99.90
15535;DHT22;7869;49.264;8.596;2022-11-28T17:01:36;7.20;99.90
15535;DHT22;7869;49.264;8.596;2022-11-28T17:04:02;7.20;99.90
15535;DHT22;7869;49.264;8.596;2022-11-28T17:06:34;7.20;99.90
15535;DHT22;7869;49.264;8.596;2022-11-28T17:09:06;7.10;99.90
15535;DHT22;7869;49.264;8.596;2022-11-28T17:11:34;7.10;99.90
15535;DHT22;7869;49.264;8.596;2022-11-28T17:14:00;7.10;99.90
15535;DHT22;7869;49.264;8.596;2022-11-28T17:16:28;7.10;99.90
15535;DHT22;7869;49.264;8.596;2022-11-28T17:18:54;7.10;99.90
15535;DHT22;7869;49.264;8.596;2022-11-28T17:21:31;7.10;99.90
15535;DHT22;7869;49.264;8.596;2022-11-28T17:23:59;7.10;99.90
15535;DHT22;7869;49.264;8.596;2022-11-28T17:26:24;7.00;99.90
15535;DHT22;7869;49.264;8.596;2022-11-28T17:28:50;7.00;99.90
15535;DHT22;7869;49.264;8.596;2022-11-28T17:31:16;7.10;99.90
15535;DHT22;7869;49.264;8.596;2022-11-28T17:33:42;7.20;99.90
15535;DHT22;7869;49.264;8.596;2022-11-28T17:36:09;7.10;99.90
15535;DHT22;7869;49.264;8.596;2022-11-28T17:38:35;7.10;99.90
15535;DHT22;7869;49.264;8.596;2022-11-28T17:41:01;7.10;99.90
15535;DHT22;7869;49.264;8.596;2022-11-28T17:43:27;7.00;99.90
15535;DHT22;7869;49.264;8.596;2022-11-28T17:45:52;7.00;99.90
15535;DHT22;7869;49.264;8.596;2022-11-28T17:48:18;6.90;99.90
15535;DHT22;7869;49.264;8.596;2022-11-28T17:50:46;7.00;99.90
15535;DHT22;7869;49.264;8.596;2022-11-28T17:53:13;7.00;99.90
15535;DHT22;7869;49.264;8.596;2022-11-28T17:55:40;6.90;99.90
15535;DHT22;7869;49.264;8.596;2022-11-28T17:58:19;6.90;99.90
15535;DHT22;7869;49.264;8.596;2022-11-28T18:00:46;7.00;99.90
15535;DHT22;7869;49.264;8.596;2022-11-28T18:03:12;7.00;99.90
15535;DHT22;7869;49.264;8.596;2022-11-28T18:05:43;7.00;99.90
15535;DHT22;7869;49.264;8.596;2022-11-28T18:08:08;6.90;99.90
15535;DHT22;7869;49.264;8.596;2022-11-28T18:10:34;6.90;99.90
15535;DHT22;7869;49.264;8.596;2022-11-28T18:13:00;6.90;99.90
15535;DHT22;7869;49.264;8.596;2022-11-28T18:15:26;6.90;99.90
15535;DHT22;7869;49.264;8.596;2022-11-28T18:17:53;6.90;99.90
15535;DHT22;7869;49.264;8.596;2022-11-28T18:20:19;6.90;99.90
15535;DHT22;7869;49.264;8.596;2022-11-28T18:22:45;6.80;99.90
15535;DHT22;7869;49.264;8.596;2022-11-28T18:25:11;6.80;99.90
15535;DHT22;7869;49.264;8.596;2022-11-28T18:27:36;6.80;99.90
15535;DHT22;7869;49.264;8.596;2022-11-28T18:30:03;6.80;99.90
15535;DHT22;7869;49.264;8.596;2022-11-28T18:32:28;6.80;99.90
15535;DHT22;7869;49.264;8.596;2022-11-28T18:34:54;6.80;99.90
15535;DHT22;7869;49.264;8.596;2022-11-28T18:37:20;6.80;99.90
15535;DHT22;7869;49.264;8.596;2022-11-28T18:39:45;6.80;99.90
15535;DHT22;7869;49.264;8.596;2022-11-28T18:42:11;6.80;99.90
15535;DHT22;7869;49.264;8.596;2022-11-28T18:44:36;6.80;99.90
15535;DHT22;7869;49.264;8.596;2022-11-28T18:47:02;6.80;99.90
15535;DHT22;7869;49.264;8.596;2022-11-28T18:49:27;6.80;99.90
15535;DHT22;7869;49.264;8.596;2022-11-28T18:51:56;6.80;99.90
15535;DHT22;7869;49.264;8.596;2022-11-28T18:54:22;6.90;99.90
15535;DHT22;7869;49.264;8.596;2022-11-28T18:56:48;6.90;99.90
15535;DHT22;7869;49.264;8.596;2022-11-28T18:59:14;6.90;99.90
15535;DHT22;7869;49.264;8.596;2022-11-28T19:01:40;6.80;99.90